sensor_id;sensor_type;location;lat;lon;timestamp;pressure;altitude;pressure_sealevel;temperature;humidity
76834;BME280;65793;42.678;23.332;2023-02-28T00:01:58;95212.41;;;5.94;100.00
76834;BME280;65793;42.678;23.332;2023-02-28T00:04:58;95224.84;;;5.92;100.00
76834;BME280;65793;42.678;23.332;2023-02-28T00:08:00;95212.31;;;5.88;100.00
76834;BME280;65793;42.678;23.332;2023-02-28T00:11:02;95212.63;;;5.85;100.00
76834;BME280;65793;42.678;23.332;2023-02-28T00:14:02;95205.16;;;5.82;100.00
76834;BME280;65793;42.678;23.332;2023-02-28T00:17:03;95233.56;;;5.85;100.00
76834;BME280;65793;42.678;23.332;2023-02-28T00:20:05;95234.06;;;5.65;100.00
76834;BME280;65793;42.678;23.332;2023-02-28T00:23:08;95231.38;;;5.74;100.00
76834;BME280;65793;42.678;23.332;2023-02-28T00:26:08;95239.03;;;5.60;100.00
76834;BME280;65793;42.678;23.332;2023-02-28T00:29:09;95248.25;;;5.71;100.00
76834;BME280;65793;42.678;23.332;2023-02-28T00:32:10;95235.88;;;5.65;100.00
76834;BME280;65793;42.678;23.332;2023-02-28T00:35:11;95233.66;;;5.91;100.00
76834;BME280;65793;42.678;23.332;2023-02-28T00:38:13;95240.16;;;5.95;100.00
76834;BME280;65793;42.678;23.332;2023-02-28T00:41:13;95239.13;;;5.82;100.00
76834;BME280;65793;42.678;23.332;2023-02-28T00:44:14;95237.84;;;5.63;100.00
76834;BME280;65793;42.678;23.332;2023-02-28T00:47:14;95229.84;;;5.64;100.00
76834;BME280;65793;42.678;23.332;2023-02-28T00:50:16;95227.16;;;5.87;100.00
76834;BME280;65793;42.678;23.332;2023-02-28T00:53:18;95230.84;;;5.78;100.00
76834;BME280;65793;42.678;23.332;2023-02-28T00:56:18;95221.81;;;5.51;100.00
76834;BME280;65793;42.678;23.332;2023-02-28T00:59:19;95227.81;;;5.37;100.00
76834;BME280;65793;42.678;23.332;2023-02-28T01:02:19;95212.28;;;5.44;100.00
76834;BME280;65793;42.678;23.332;2023-02-28T01:05:20;95241.66;;;5.75;100.00
76834;BME280;65793;42.678;23.332;2023-02-28T01:08:22;95229.66;;;5.51;100.00
76834;BME280;65793;42.678;23.332;2023-02-28T01:11:23;95236.41;;;5.46;100.00
76834;BME280;65793;42.678;23.332;2023-02-28T01:14:23;95214.19;;;5.79;100.00
76834;BME280;65793;42.678;23.332;2023-02-28T01:17:24;95222.00;;;5.50;100.00
76834;BME280;65793;42.678;23.332;2023-02-28T01:20:25;95218.56;;;5.64;100.00
76834;BME280;65793;42.678;23.332;2023-02-28T01:23:27;95229.63;;;5.89;100.00
76834;BME280;65793;42.678;23.332;2023-02-28T01:26:27;95223.00;;;5.63;100.00
76834;BME280;65793;42.678;23.332;2023-02-28T01:29:28;95224.63;;;5.64;100.00
76834;BME280;65793;42.678;23.332;2023-02-28T01:32:28;95222.47;;;5.83;100.00
76834;BME280;65793;42.678;23.332;2023-02-28T01:35:32;95226.66;;;5.54;100.00
76834;BME280;65793;42.678;23.332;2023-02-28T01:38:34;95224.59;;;5.50;100.00
76834;BME280;65793;42.678;23.332;2023-02-28T01:41:35;95223.72;;;5.72;100.00
76834;BME280;65793;42.678;23.332;2023-02-28T01:45:00;95222.09;;;5.42;100.00
76834;BME280;65793;42.678;23.332;2023-02-28T01:48:04;95228.03;;;5.36;100.00
76834;BME280;65793;42.678;23.332;2023-02-28T01:51:10;95232.19;;;5.45;100.00
76834;BME280;65793;42.678;23.332;2023-02-28T01:54:16;95231.28;;;5.52;100.00
76834;BME280;65793;42.678;23.332;2023-02-28T01:57:20;95227.69;;;5.53;100.00
76834;BME280;65793;42.678;23.332;2023-02-28T02:00:24;95231.72;;;5.41;100.00
76834;BME280;65793;42.678;23.332;2023-02-28T02:03:25;95233.75;;;5.16;100.00
76834;BME280;65793;42.678;23.332;2023-02-28T02:06:29;95237.44;;;5.22;100.00
76834;BME280;65793;42.678;23.332;2023-02-28T02:09:32;95230.78;;;4.97;100.00
76834;BME280;65793;42.678;23.332;2023-02-28T02:12:54;95225.19;;;5.22;100.00
76834;BME280;65793;42.678;23.332;2023-02-28T02:16:10;95220.50;;;5.18;100.00
76834;BME280;65793;42.678;23.332;2023-02-28T02:19:36;95220.31;;;5.72;100.00
76834;BME280;65793;42.678;23.332;2023-02-28T02:26:57;95211.38;;;5.81;100.00
76834;BME280;65793;42.678;23.332;2023-02-28T02:30:32;95215.09;;;6.01;100.00
76834;BME280;65793;42.678;23.332;2023-02-28T02:34:07;95219.78;;;6.06;100.00
76834;BME280;65793;42.678;23.332;2023-02-28T02:37:15;95224.19;;;5.90;100.00
76834;BME280;65793;42.678;23.332;2023-02-28T02:40:23;95226.22;;;5.88;100.00
76834;BME280;65793;42.678;23.332;2023-02-28T02:43:27;95228.63;;;5.90;100.00
76834;BME280;65793;42.678;23.332;2023-02-28T02:46:32;95232.28;;;5.81;100.00
76834;BME280;65793;42.678;23.332;2023-02-28T02:49:36;95240.41;;;5.71;100.00
76834;BME280;65793;42.678;23.332;2023-02-28T02:52:42;95236.59;;;5.59;100.00
76834;BME280;65793;42.678;23.332;2023-02-28T02:55:46;95238.31;;;5.81;100.00
76834;BME280;65793;42.678;23.332;2023-02-28T02:58:47;95237.84;;;5.63;100.00
76834;BME280;65793;42.678;23.332;2023-02-28T03:01:51;95242.63;;;5.45;100.00
76834;BME280;65793;42.678;23.332;2023-02-28T03:04:59;95255.53;;;5.61;100.00
76834;BME280;65793;42.678;23.332;2023-02-28T03:08:03;95249.41;;;5.83;100.00
76834;BME280;65793;42.678;23.332;2023-02-28T03:11:06;95252.88;;;6.13;100.00
76834;BME280;65793;42.678;23.332;2023-02-28T03:17:45;95270.44;;;6.49;100.00
76834;BME280;65793;42.678;23.332;2023-02-28T03:20:56;95270.53;;;6.26;100.00
76834;BME280;65793;42.678;23.332;2023-02-28T03:24:04;95266.56;;;6.30;100.00
76834;BME280;65793;42.678;23.332;2023-02-28T03:27:08;95274.47;;;6.51;100.00
76834;BME280;65793;42.678;23.332;2023-02-28T03:30:15;95273.16;;;6.40;100.00
76834;BME280;65793;42.678;23.332;2023-02-28T03:33:19;95281.84;;;6.77;100.00
76834;BME280;65793;42.678;23.332;2023-02-28T03:36:25;95286.09;;;6.63;100.00
76834;BME280;65793;42.678;23.332;2023-02-28T03:39:29;95281.03;;;6.62;100.00
76834;BME280;65793;42.678;23.332;2023-02-28T03:42:31;95287.00;;;6.56;100.00
76834;BME280;65793;42.678;23.332;2023-02-28T03:45:36;95282.56;;;6.71;100.00
76834;BME280;65793;42.678;23.332;2023-02-28T03:48:42;95284.81;;;6.74;100.00
76834;BME280;65793;42.678;23.332;2023-02-28T03:51:47;95285.47;;;6.61;100.00
76834;BME280;65793;42.678;23.332;2023-02-28T03:54:53;95293.31;;;6.61;100.00
76834;BME280;65793;42.678;23.332;2023-02-28T03:57:58;95298.50;;;6.40;100.00
76834;BME280;65793;42.678;23.332;2023-02-28T04:01:05;95292.75;;;6.15;100.00
76834;BME280;65793;42.678;23.332;2023-02-28T04:04:08;95299.88;;;6.21;100.00
76834;BME280;65793;42.678;23.332;2023-02-28T04:07:11;95293.09;;;6.12;100.00
76834;BME280;65793;42.678;23.332;2023-02-28T04:10:12;95292.72;;;6.00;100.00
76834;BME280;65793;42.678;23.332;2023-02-28T04:13:13;95305.47;;;6.03;100.00
76834;BME280;65793;42.678;23.332;2023-02-28T04:16:14;95296.56;;;5.75;100.00
76834;BME280;65793;42.678;23.332;2023-02-28T04:19:14;95281.34;;;5.79;100.00
76834;BME280;65793;42.678;23.332;2023-02-28T04:22:16;95285.97;;;5.91;100.00
76834;BME280;65793;42.678;23.332;2023-02-28T04:25:17;95291.66;;;6.10;100.00
76834;BME280;65793;42.678;23.332;2023-02-28T04:28:17;95292.19;;;6.20;100.00
76834;BME280;65793;42.678;23.332;2023-02-28T04:34:55;95295.44;;;6.22;100.00
76834;BME280;65793;42.678;23.332;2023-02-28T04:37:21;95295.81;;;6.19;100.00
76834;BME280;65793;42.678;23.332;2023-02-28T04:40:28;95295.81;;;6.04;100.00
